Terminal Aerodrome Forecast
Issued by NWS

Home | Current Version | Previous Version | Text Only | Print | Product List | Glossary On
Versions: 1 2 3 4 5 6 7 8 9 10 11 12 13 14 15 16 17 18 19 20 21 22 23 24 25 26 27 28 29 30
918
FTUS41 KRNK 271144 AAA
TAFBCB
TAF AMD
KBCB 271144Z 2712/2812 00000KT P6SM SCT110
     FM271300 00000KT P6SM BKN100
     FM271700 VRB03KT P6SM VCTS OVC040CB
     FM272100 30005KT P6SM BKN070
     FM280500 00000KT P6SM BKN080=

USA.gov is the U.S. government's official web portal to all federal, state and local government web resources and services.